sensor_id;sensor_type;location;lat;lon;timestamp;P1;durP1;ratioP1;P2;durP2;ratioP2
42912;SDS011;50720;54.324;18.558;2023-05-31T00:01:03;14.05;;;6.22;;
42912;SDS011;50720;54.324;18.558;2023-05-31T00:03:34;15.60;;;5.80;;
42912;SDS011;50720;54.324;18.558;2023-05-31T00:06:08;14.55;;;5.90;;
42912;SDS011;50720;54.324;18.558;2023-05-31T00:08:39;17.60;;;6.18;;
42912;SDS011;50720;54.324;18.558;2023-05-31T00:11:08;14.95;;;5.20;;
42912;SDS011;50720;54.324;18.558;2023-05-31T00:13:38;11.77;;;5.35;;
42912;SDS011;50720;54.324;18.558;2023-05-31T00:16:09;16.90;;;5.32;;
42912;SDS011;50720;54.324;18.558;2023-05-31T00:19:00;11.65;;;4.75;;
42912;SDS011;50720;54.324;18.558;2023-05-31T00:21:30;10.32;;;4.90;;
42912;SDS011;50720;54.324;18.558;2023-05-31T00:24:00;11.50;;;5.13;;
42912;SDS011;50720;54.324;18.558;2023-05-31T00:26:30;12.77;;;5.13;;
42912;SDS011;50720;54.324;18.558;2023-05-31T00:29:00;11.70;;;5.90;;
42912;SDS011;50720;54.324;18.558;2023-05-31T00:31:31;16.23;;;5.47;;
42912;SDS011;50720;54.324;18.558;2023-05-31T00:34:01;13.77;;;6.20;;
42912;SDS011;50720;54.324;18.558;2023-05-31T00:36:30;12.40;;;5.82;;
42912;SDS011;50720;54.324;18.558;2023-05-31T00:39:01;22.13;;;8.98;;
42912;SDS011;50720;54.324;18.558;2023-05-31T00:41:31;15.13;;;6.85;;
42912;SDS011;50720;54.324;18.558;2023-05-31T00:44:01;18.00;;;8.23;;
42912;SDS011;50720;54.324;18.558;2023-05-31T00:46:33;17.10;;;7.28;;
42912;SDS011;50720;54.324;18.558;2023-05-31T00:49:05;20.05;;;8.30;;
42912;SDS011;50720;54.324;18.558;2023-05-31T00:51:35;15.02;;;7.85;;
42912;SDS011;50720;54.324;18.558;2023-05-31T00:54:05;17.92;;;7.93;;
42912;SDS011;50720;54.324;18.558;2023-05-31T00:56:37;16.35;;;7.85;;
42912;SDS011;50720;54.324;18.558;2023-05-31T00:59:07;17.88;;;7.15;;
42912;SDS011;50720;54.324;18.558;2023-05-31T01:01:38;16.38;;;6.75;;
42912;SDS011;50720;54.324;18.558;2023-05-31T01:04:08;17.17;;;7.80;;
42912;SDS011;50720;54.324;18.558;2023-05-31T01:06:38;14.82;;;6.82;;
42912;SDS011;50720;54.324;18.558;2023-05-31T01:09:08;14.15;;;7.18;;
42912;SDS011;50720;54.324;18.558;2023-05-31T01:11:46;17.55;;;7.22;;
42912;SDS011;50720;54.324;18.558;2023-05-31T01:14:30;12.52;;;6.72;;
42912;SDS011;50720;54.324;18.558;2023-05-31T01:17:12;18.08;;;7.07;;
42912;SDS011;50720;54.324;18.558;2023-05-31T01:19:52;17.63;;;7.47;;
42912;SDS011;50720;54.324;18.558;2023-05-31T01:22:25;14.05;;;7.40;;
42912;SDS011;50720;54.324;18.558;2023-05-31T01:25:25;15.30;;;6.47;;
42912;SDS011;50720;54.324;18.558;2023-05-31T01:28:02;16.38;;;7.30;;
42912;SDS011;50720;54.324;18.558;2023-05-31T01:30:34;11.05;;;6.40;;
42912;SDS011;50720;54.324;18.558;2023-05-31T01:33:06;15.02;;;6.68;;
42912;SDS011;50720;54.324;18.558;2023-05-31T01:35:38;12.75;;;7.30;;
42912;SDS011;50720;54.324;18.558;2023-05-31T01:38:08;14.98;;;7.30;;
42912;SDS011;50720;54.324;18.558;2023-05-31T01:40:38;16.05;;;7.30;;
42912;SDS011;50720;54.324;18.558;2023-05-31T01:43:10;14.13;;;7.82;;
42912;SDS011;50720;54.324;18.558;2023-05-31T01:45:41;11.40;;;5.88;;
42912;SDS011;50720;54.324;18.558;2023-05-31T01:48:11;19.38;;;7.32;;
42912;SDS011;50720;54.324;18.558;2023-05-31T01:53:13;15.90;;;7.78;;
42912;SDS011;50720;54.324;18.558;2023-05-31T01:55:42;12.85;;;6.40;;
42912;SDS011;50720;54.324;18.558;2023-05-31T01:58:14;11.65;;;6.80;;
42912;SDS011;50720;54.324;18.558;2023-05-31T02:00:46;15.75;;;8.05;;
42912;SDS011;50720;54.324;18.558;2023-05-31T02:03:17;21.88;;;7.00;;
42912;SDS011;50720;54.324;18.558;2023-05-31T02:05:54;16.35;;;6.65;;
42912;SDS011;50720;54.324;18.558;2023-05-31T02:08:24;14.77;;;6.45;;
42912;SDS011;50720;54.324;18.558;2023-05-31T02:10:54;12.98;;;7.05;;
42912;SDS011;50720;54.324;18.558;2023-05-31T02:13:26;10.77;;;6.00;;
42912;SDS011;50720;54.324;18.558;2023-05-31T02:15:57;16.55;;;7.32;;
42912;SDS011;50720;54.324;18.558;2023-05-31T02:18:26;12.88;;;5.55;;
42912;SDS011;50720;54.324;18.558;2023-05-31T02:20:56;10.27;;;5.88;;
42912;SDS011;50720;54.324;18.558;2023-05-31T02:23:26;11.35;;;6.32;;
42912;SDS011;50720;54.324;18.558;2023-05-31T02:25:56;10.00;;;6.60;;
42912;SDS011;50720;54.324;18.558;2023-05-31T02:28:27;13.00;;;5.78;;
42912;SDS011;50720;54.324;18.558;2023-05-31T02:30:58;9.25;;;5.18;;
42912;SDS011;50720;54.324;18.558;2023-05-31T02:33:28;13.65;;;6.22;;
42912;SDS011;50720;54.324;18.558;2023-05-31T02:35:58;12.20;;;5.60;;
42912;SDS011;50720;54.324;18.558;2023-05-31T02:38:28;11.40;;;5.45;;
42912;SDS011;50720;54.324;18.558;2023-05-31T02:40:58;13.02;;;5.90;;
42912;SDS011;50720;54.324;18.558;2023-05-31T02:43:29;12.82;;;5.90;;
42912;SDS011;50720;54.324;18.558;2023-05-31T02:45:59;13.73;;;5.90;;
42912;SDS011;50720;54.324;18.558;2023-05-31T02:48:29;13.87;;;5.87;;
42912;SDS011;50720;54.324;18.558;2023-05-31T02:50:59;11.77;;;6.60;;
42912;SDS011;50720;54.324;18.558;2023-05-31T02:53:30;13.02;;;6.03;;
42912;SDS011;50720;54.324;18.558;2023-05-31T02:56:00;11.93;;;6.03;;
42912;SDS011;50720;54.324;18.558;2023-05-31T02:58:31;10.98;;;5.35;;
42912;SDS011;50720;54.324;18.558;2023-05-31T03:01:01;12.25;;;5.30;;
42912;SDS011;50720;54.324;18.558;2023-05-31T03:03:30;13.88;;;5.57;;
42912;SDS011;50720;54.324;18.558;2023-05-31T03:06:00;13.27;;;5.55;;
42912;SDS011;50720;54.324;18.558;2023-05-31T03:11:01;13.80;;;5.32;;
42912;SDS011;50720;54.324;18.558;2023-05-31T03:13:32;14.65;;;5.55;;
42912;SDS011;50720;54.324;18.558;2023-05-31T03:16:02;10.35;;;5.65;;
42912;SDS011;50720;54.324;18.558;2023-05-31T03:18:32;9.77;;;4.30;;
42912;SDS011;50720;54.324;18.558;2023-05-31T03:21:04;16.63;;;5.15;;
42912;SDS011;50720;54.324;18.558;2023-05-31T03:23:34;13.45;;;5.70;;
42912;SDS011;50720;54.324;18.558;2023-05-31T03:26:04;16.85;;;5.10;;
42912;SDS011;50720;54.324;18.558;2023-05-31T03:28:35;12.15;;;4.88;;
42912;SDS011;50720;54.324;18.558;2023-05-31T03:31:05;9.80;;;5.90;;
42912;SDS011;50720;54.324;18.558;2023-05-31T03:33:35;14.20;;;5.18;;
42912;SDS011;50720;54.324;18.558;2023-05-31T03:36:05;10.75;;;5.13;;
42912;SDS011;50720;54.324;18.558;2023-05-31T03:38:35;12.67;;;6.23;;
42912;SDS011;50720;54.324;18.558;2023-05-31T03:41:06;11.50;;;5.68;;
42912;SDS011;50720;54.324;18.558;2023-05-31T03:43:37;11.13;;;6.07;;
42912;SDS011;50720;54.324;18.558;2023-05-31T03:46:07;9.68;;;5.68;;
42912;SDS011;50720;54.324;18.558;2023-05-31T03:48:36;10.32;;;4.55;;
42912;SDS011;50720;54.324;18.558;2023-05-31T03:51:06;9.27;;;4.63;;
42912;SDS011;50720;54.324;18.558;2023-05-31T03:53:36;13.05;;;4.90;;
42912;SDS011;50720;54.324;18.558;2023-05-31T03:56:06;10.55;;;4.47;;
42912;SDS011;50720;54.324;18.558;2023-05-31T03:58:37;10.07;;;5.03;;
42912;SDS011;50720;54.324;18.558;2023-05-31T04:01:07;20.17;;;5.63;;
42912;SDS011;50720;54.324;18.558;2023-05-31T04:03:37;9.57;;;4.50;;
42912;SDS011;50720;54.324;18.558;2023-05-31T04:06:08;9.70;;;4.95;;
42912;SDS011;50720;54.324;18.558;2023-05-31T04:08:37;10.40;;;5.60;;
42912;SDS011;50720;54.324;18.558;2023-05-31T04:11:08;10.17;;;4.80;;
42912;SDS011;50720;54.324;18.558;2023-05-31T04:13:39;11.50;;;4.75;;
42912;SDS011;50720;54.324;18.558;2023-05-31T04:16:09;13.23;;;5.13;;
42912;SDS011;50720;54.324;18.558;2023-05-31T04:18:38;9.23;;;4.82;;
42912;SDS011;50720;54.324;18.558;2023-05-31T04:21:08;13.98;;;3.92;;
42912;SDS011;50720;54.324;18.558;2023-05-31T04:23:38;10.57;;;3.72;;
42912;SDS011;50720;54.324;18.558;2023-05-31T04:26:07;12.38;;;4.93;;
42912;SDS011;50720;54.324;18.558;2023-05-31T04:28:45;15.93;;;4.97;;
42912;SDS011;50720;54.324;18.558;2023-05-31T04:31:19;9.40;;;3.80;;
42912;SDS011;50720;54.324;18.558;2023-05-31T04:34:08;12.50;;;4.75;;
42912;SDS011;50720;54.324;18.558;2023-05-31T04:36:41;8.35;;;3.95;;
42912;SDS011;50720;54.324;18.558;2023-05-31T04:39:11;12.95;;;4.78;;
42912;SDS011;50720;54.324;18.558;2023-05-31T04:41:43;7.32;;;3.65;;
42912;SDS011;50720;54.324;18.558;2023-05-31T04:44:14;8.57;;;3.30;;
42912;SDS011;50720;54.324;18.558;2023-05-31T04:46:46;8.05;;;4.05;;
42912;SDS011;50720;54.324;18.558;2023-05-31T04:49:16;10.63;;;3.80;;
42912;SDS011;50720;54.324;18.558;2023-05-31T04:51:46;18.47;;;4.17;;
42912;SDS011;50720;54.324;18.558;2023-05-31T04:54:16;11.10;;;3.65;;
42912;SDS011;50720;54.324;18.558;2023-05-31T04:56:45;4.77;;;3.03;;
42912;SDS011;50720;54.324;18.558;2023-05-31T04:59:16;4.07;;;2.55;;
42912;SDS011;50720;54.324;18.558;2023-05-31T05:01:47;4.85;;;2.78;;
42912;SDS011;50720;54.324;18.558;2023-05-31T05:06:47;7.38;;;2.83;;
42912;SDS011;50720;54.324;18.558;2023-05-31T05:09:16;10.32;;;3.65;;
42912;SDS011;50720;54.324;18.558;2023-05-31T05:11:46;5.63;;;2.83;;
42912;SDS011;50720;54.324;18.558;2023-05-31T05:14:17;6.88;;;3.28;;
42912;SDS011;50720;54.324;18.558;2023-05-31T05:16:47;13.60;;;4.30;;
42912;SDS011;50720;54.324;18.558;2023-05-31T05:19:17;5.65;;;2.78;;
42912;SDS011;50720;54.324;18.558;2023-05-31T05:21:47;9.52;;;2.60;;
42912;SDS011;50720;54.324;18.558;2023-05-31T05:24:17;5.90;;;2.60;;
42912;SDS011;50720;54.324;18.558;2023-05-31T05:26:47;12.73;;;2.95;;
42912;SDS011;50720;54.324;18.558;2023-05-31T05:29:18;10.00;;;2.22;;
42912;SDS011;50720;54.324;18.558;2023-05-31T05:31:47;6.47;;;2.88;;
42912;SDS011;50720;54.324;18.558;2023-05-31T05:34:18;10.10;;;3.60;;
42912;SDS011;50720;54.324;18.558;2023-05-31T05:36:48;9.40;;;2.22;;
42912;SDS011;50720;54.324;18.558;2023-05-31T05:39:18;16.58;;;2.95;;
42912;SDS011;50720;54.324;18.558;2023-05-31T05:41:48;3.90;;;2.58;;
42912;SDS011;50720;54.324;18.558;2023-05-31T05:44:19;3.97;;;2.08;;
42912;SDS011;50720;54.324;18.558;2023-05-31T05:46:49;9.85;;;2.45;;
42912;SDS011;50720;54.324;18.558;2023-05-31T05:49:19;8.80;;;3.13;;
42912;SDS011;50720;54.324;18.558;2023-05-31T05:51:49;10.17;;;2.80;;
42912;SDS011;50720;54.324;18.558;2023-05-31T05:54:19;8.52;;;3.15;;
42912;SDS011;50720;54.324;18.558;2023-05-31T05:56:49;19.77;;;2.88;;
42912;SDS011;50720;54.324;18.558;2023-05-31T05:59:20;8.57;;;2.88;;
42912;SDS011;50720;54.324;18.558;2023-05-31T06:01:50;9.55;;;2.95;;
42912;SDS011;50720;54.324;18.558;2023-05-31T06:04:19;6.55;;;2.28;;
42912;SDS011;50720;54.324;18.558;2023-05-31T06:06:49;11.10;;;2.45;;
42912;SDS011;50720;54.324;18.558;2023-05-31T06:09:19;7.88;;;2.63;;
42912;SDS011;50720;54.324;18.558;2023-05-31T06:11:48;6.05;;;1.80;;
42912;SDS011;50720;54.324;18.558;2023-05-31T06:14:20;10.20;;;2.53;;
42912;SDS011;50720;54.324;18.558;2023-05-31T06:16:50;7.00;;;2.00;;
42912;SDS011;50720;54.324;18.558;2023-05-31T06:19:20;10.10;;;2.25;;
42912;SDS011;50720;54.324;18.558;2023-05-31T06:21:49;8.45;;;1.77;;
42912;SDS011;50720;54.324;18.558;2023-05-31T06:24:20;5.95;;;1.85;;
42912;SDS011;50720;54.324;18.558;2023-05-31T06:26:51;8.88;;;1.70;;
42912;SDS011;50720;54.324;18.558;2023-05-31T06:29:22;7.63;;;1.67;;
42912;SDS011;50720;54.324;18.558;2023-05-31T06:31:53;4.65;;;1.33;;
42912;SDS011;50720;54.324;18.558;2023-05-31T06:34:23;4.50;;;1.65;;
42912;SDS011;50720;54.324;18.558;2023-05-31T06:36:53;5.60;;;2.20;;
42912;SDS011;50720;54.324;18.558;2023-05-31T06:39:23;9.93;;;1.50;;
42912;SDS011;50720;54.324;18.558;2023-05-31T06:41:52;2.65;;;1.45;;
42912;SDS011;50720;54.324;18.558;2023-05-31T06:44:26;7.28;;;1.20;;
42912;SDS011;50720;54.324;18.558;2023-05-31T06:46:56;4.13;;;1.40;;
42912;SDS011;50720;54.324;18.558;2023-05-31T06:49:25;2.90;;;1.30;;
42912;SDS011;50720;54.324;18.558;2023-05-31T06:51:56;2.38;;;1.50;;
42912;SDS011;50720;54.324;18.558;2023-05-31T06:54:26;2.40;;;0.90;;
42912;SDS011;50720;54.324;18.558;2023-05-31T06:56:56;2.72;;;0.82;;
42912;SDS011;50720;54.324;18.558;2023-05-31T06:59:27;3.63;;;1.13;;
42912;SDS011;50720;54.324;18.558;2023-05-31T07:01:57;5.63;;;0.73;;
42912;SDS011;50720;54.324;18.558;2023-05-31T07:04:26;4.18;;;1.15;;
42912;SDS011;50720;54.324;18.558;2023-05-31T07:06:56;2.00;;;1.40;;
42912;SDS011;50720;54.324;18.558;2023-05-31T07:09:25;6.00;;;1.30;;
42912;SDS011;50720;54.324;18.558;2023-05-31T07:11:55;4.78;;;1.00;;
42912;SDS011;50720;54.324;18.558;2023-05-31T07:14:26;3.10;;;1.08;;
42912;SDS011;50720;54.324;18.558;2023-05-31T07:16:57;5.38;;;1.25;;
42912;SDS011;50720;54.324;18.558;2023-05-31T07:19:28;4.63;;;0.85;;
42912;SDS011;50720;54.324;18.558;2023-05-31T07:21:57;5.57;;;1.00;;
42912;SDS011;50720;54.324;18.558;2023-05-31T07:24:27;2.97;;;1.00;;
42912;SDS011;50720;54.324;18.558;2023-05-31T07:26:56;6.07;;;0.80;;
42912;SDS011;50720;54.324;18.558;2023-05-31T07:29:28;9.18;;;1.48;;
42912;SDS011;50720;54.324;18.558;2023-05-31T07:31:58;2.53;;;0.98;;
42912;SDS011;50720;54.324;18.558;2023-05-31T07:34:27;4.47;;;1.15;;
42912;SDS011;50720;54.324;18.558;2023-05-31T07:36:57;2.10;;;0.85;;
42912;SDS011;50720;54.324;18.558;2023-05-31T07:39:28;7.78;;;1.08;;
42912;SDS011;50720;54.324;18.558;2023-05-31T07:41:58;4.75;;;1.00;;
42912;SDS011;50720;54.324;18.558;2023-05-31T07:44:29;2.35;;;1.00;;
42912;SDS011;50720;54.324;18.558;2023-05-31T07:46:59;3.65;;;0.93;;
42912;SDS011;50720;54.324;18.558;2023-05-31T07:49:29;9.65;;;1.58;;
42912;SDS011;50720;54.324;18.558;2023-05-31T07:51:59;5.68;;;1.52;;
42912;SDS011;50720;54.324;18.558;2023-05-31T07:54:29;3.88;;;1.13;;
42912;SDS011;50720;54.324;18.558;2023-05-31T07:56:59;10.27;;;1.27;;
42912;SDS011;50720;54.324;18.558;2023-05-31T07:59:30;8.60;;;1.60;;
42912;SDS011;50720;54.324;18.558;2023-05-31T08:02:00;6.50;;;1.60;;
42912;SDS011;50720;54.324;18.558;2023-05-31T08:04:31;3.15;;;1.45;;
42912;SDS011;50720;54.324;18.558;2023-05-31T08:07:01;3.10;;;0.93;;
42912;SDS011;50720;54.324;18.558;2023-05-31T08:09:30;7.03;;;1.23;;
42912;SDS011;50720;54.324;18.558;2023-05-31T08:12:00;8.93;;;1.38;;
42912;SDS011;50720;54.324;18.558;2023-05-31T08:14:31;3.72;;;1.20;;
42912;SDS011;50720;54.324;18.558;2023-05-31T08:17:01;3.28;;;1.33;;
42912;SDS011;50720;54.324;18.558;2023-05-31T08:19:31;4.00;;;1.30;;
42912;SDS011;50720;54.324;18.558;2023-05-31T08:22:00;5.18;;;1.42;;
42912;SDS011;50720;54.324;18.558;2023-05-31T08:27:00;3.47;;;1.10;;
42912;SDS011;50720;54.324;18.558;2023-05-31T08:29:32;3.50;;;0.80;;
42912;SDS011;50720;54.324;18.558;2023-05-31T08:32:03;3.08;;;1.30;;
42912;SDS011;50720;54.324;18.558;2023-05-31T08:34:33;3.58;;;1.23;;
42912;SDS011;50720;54.324;18.558;2023-05-31T08:37:03;2.43;;;1.07;;
42912;SDS011;50720;54.324;18.558;2023-05-31T08:39:33;7.32;;;1.00;;
42912;SDS011;50720;54.324;18.558;2023-05-31T08:42:03;4.73;;;1.17;;
42912;SDS011;50720;54.324;18.558;2023-05-31T08:44:35;4.03;;;0.88;;
42912;SDS011;50720;54.324;18.558;2023-05-31T08:47:07;3.72;;;1.17;;
42912;SDS011;50720;54.324;18.558;2023-05-31T08:49:41;3.47;;;1.30;;
42912;SDS011;50720;54.324;18.558;2023-05-31T08:52:13;4.90;;;1.13;;
42912;SDS011;50720;54.324;18.558;2023-05-31T08:54:43;13.50;;;1.52;;
42912;SDS011;50720;54.324;18.558;2023-05-31T08:57:14;3.58;;;0.90;;
42912;SDS011;50720;54.324;18.558;2023-05-31T08:59:47;3.42;;;0.88;;
42912;SDS011;50720;54.324;18.558;2023-05-31T09:02:17;6.25;;;1.20;;
42912;SDS011;50720;54.324;18.558;2023-05-31T09:04:47;5.00;;;1.02;;
42912;SDS011;50720;54.324;18.558;2023-05-31T09:07:19;2.83;;;0.77;;
42912;SDS011;50720;54.324;18.558;2023-05-31T09:09:48;5.28;;;1.00;;
42912;SDS011;50720;54.324;18.558;2023-05-31T09:12:18;3.63;;;1.10;;
42912;SDS011;50720;54.324;18.558;2023-05-31T09:14:49;10.43;;;1.30;;
42912;SDS011;50720;54.324;18.558;2023-05-31T09:17:20;11.75;;;1.33;;
42912;SDS011;50720;54.324;18.558;2023-05-31T09:19:49;4.03;;;1.48;;
42912;SDS011;50720;54.324;18.558;2023-05-31T09:22:21;4.45;;;1.10;;
42912;SDS011;50720;54.324;18.558;2023-05-31T09:24:50;3.42;;;1.00;;
42912;SDS011;50720;54.324;18.558;2023-05-31T09:27:25;4.22;;;1.35;;
42912;SDS011;50720;54.324;18.558;2023-05-31T09:29:57;6.72;;;0.82;;
42912;SDS011;50720;54.324;18.558;2023-05-31T09:32:26;1.35;;;0.85;;
42912;SDS011;50720;54.324;18.558;2023-05-31T09:35:01;5.65;;;1.70;;
42912;SDS011;50720;54.324;18.558;2023-05-31T09:37:43;3.03;;;1.33;;
42912;SDS011;50720;54.324;18.558;2023-05-31T09:40:13;6.43;;;1.17;;
42912;SDS011;50720;54.324;18.558;2023-05-31T09:42:46;3.70;;;1.05;;
42912;SDS011;50720;54.324;18.558;2023-05-31T09:45:18;9.57;;;1.30;;
42912;SDS011;50720;54.324;18.558;2023-05-31T09:47:50;6.60;;;1.23;;
42912;SDS011;50720;54.324;18.558;2023-05-31T09:50:20;6.40;;;1.35;;
42912;SDS011;50720;54.324;18.558;2023-05-31T09:52:55;4.18;;;1.13;;
42912;SDS011;50720;54.324;18.558;2023-05-31T09:55:37;4.53;;;1.27;;
42912;SDS011;50720;54.324;18.558;2023-05-31T09:58:08;7.45;;;1.20;;
42912;SDS011;50720;54.324;18.558;2023-05-31T10:00:42;1.63;;;0.93;;
42912;SDS011;50720;54.324;18.558;2023-05-31T10:03:14;1.80;;;1.20;;
42912;SDS011;50720;54.324;18.558;2023-05-31T10:05:44;5.63;;;1.23;;
42912;SDS011;50720;54.324;18.558;2023-05-31T10:08:14;3.53;;;0.97;;
42912;SDS011;50720;54.324;18.558;2023-05-31T10:10:43;3.93;;;0.80;;
42912;SDS011;50720;54.324;18.558;2023-05-31T10:13:13;24.40;;;2.55;;
42912;SDS011;50720;54.324;18.558;2023-05-31T10:15:46;2.78;;;0.98;;
42912;SDS011;50720;54.324;18.558;2023-05-31T10:18:19;3.45;;;0.88;;
42912;SDS011;50720;54.324;18.558;2023-05-31T10:20:52;2.33;;;0.65;;
42912;SDS011;50720;54.324;18.558;2023-05-31T10:23:28;2.97;;;1.02;;
42912;SDS011;50720;54.324;18.558;2023-05-31T10:26:12;8.50;;;1.05;;
42912;SDS011;50720;54.324;18.558;2023-05-31T10:28:45;4.05;;;1.02;;
42912;SDS011;50720;54.324;18.558;2023-05-31T10:31:25;9.50;;;1.13;;
42912;SDS011;50720;54.324;18.558;2023-05-31T10:34:07;5.97;;;1.08;;
42912;SDS011;50720;54.324;18.558;2023-05-31T10:36:47;3.08;;;0.90;;
42912;SDS011;50720;54.324;18.558;2023-05-31T10:39:21;3.90;;;1.00;;
42912;SDS011;50720;54.324;18.558;2023-05-31T10:41:55;2.53;;;1.10;;
42912;SDS011;50720;54.324;18.558;2023-05-31T10:44:35;4.40;;;1.00;;
42912;SDS011;50720;54.324;18.558;2023-05-31T10:47:12;5.93;;;1.05;;
42912;SDS011;50720;54.324;18.558;2023-05-31T10:49:45;4.43;;;1.00;;
42912;SDS011;50720;54.324;18.558;2023-05-31T10:52:17;9.57;;;1.30;;
42912;SDS011;50720;54.324;18.558;2023-05-31T10:54:47;8.13;;;1.20;;
42912;SDS011;50720;54.324;18.558;2023-05-31T10:57:17;1.70;;;1.10;;
42912;SDS011;50720;54.324;18.558;2023-05-31T10:59:46;4.72;;;1.17;;
42912;SDS011;50720;54.324;18.558;2023-05-31T11:02:18;4.10;;;1.02;;
42912;SDS011;50720;54.324;18.558;2023-05-31T11:04:48;9.98;;;1.20;;
42912;SDS011;50720;54.324;18.558;2023-05-31T11:07:21;5.63;;;1.35;;
42912;SDS011;50720;54.324;18.558;2023-05-31T11:09:53;6.50;;;2.45;;
42912;SDS011;50720;54.324;18.558;2023-05-31T11:12:32;4.80;;;1.10;;
42912;SDS011;50720;54.324;18.558;2023-05-31T11:15:04;3.30;;;1.63;;
42912;SDS011;50720;54.324;18.558;2023-05-31T11:17:49;9.75;;;1.60;;
42912;SDS011;50720;54.324;18.558;2023-05-31T11:20:20;13.27;;;1.90;;
42912;SDS011;50720;54.324;18.558;2023-05-31T11:26:08;4.43;;;1.02;;
42912;SDS011;50720;54.324;18.558;2023-05-31T11:28:54;6.13;;;1.17;;
42912;SDS011;50720;54.324;18.558;2023-05-31T11:34:27;5.97;;;1.40;;
42912;SDS011;50720;54.324;18.558;2023-05-31T11:36:59;3.30;;;1.25;;
42912;SDS011;50720;54.324;18.558;2023-05-31T11:39:30;4.85;;;1.67;;
42912;SDS011;50720;54.324;18.558;2023-05-31T11:42:02;8.98;;;1.10;;
42912;SDS011;50720;54.324;18.558;2023-05-31T11:44:32;8.52;;;1.52;;
42912;SDS011;50720;54.324;18.558;2023-05-31T11:47:04;10.98;;;1.38;;
42912;SDS011;50720;54.324;18.558;2023-05-31T11:49:36;11.63;;;1.63;;
42912;SDS011;50720;54.324;18.558;2023-05-31T11:52:05;1.58;;;1.05;;
42912;SDS011;50720;54.324;18.558;2023-05-31T11:54:35;4.40;;;1.15;;
42912;SDS011;50720;54.324;18.558;2023-05-31T11:59:35;6.30;;;1.70;;
42912;SDS011;50720;54.324;18.558;2023-05-31T12:02:07;6.30;;;1.45;;
42912;SDS011;50720;54.324;18.558;2023-05-31T12:04:40;5.88;;;1.27;;
42912;SDS011;50720;54.324;18.558;2023-05-31T12:07:11;2.28;;;1.00;;
42912;SDS011;50720;54.324;18.558;2023-05-31T12:09:44;6.55;;;1.13;;
42912;SDS011;50720;54.324;18.558;2023-05-31T12:12:14;5.05;;;1.10;;
42912;SDS011;50720;54.324;18.558;2023-05-31T12:17:20;4.40;;;1.20;;
42912;SDS011;50720;54.324;18.558;2023-05-31T12:19:51;2.90;;;1.02;;
42912;SDS011;50720;54.324;18.558;2023-05-31T12:22:20;5.07;;;0.85;;
42912;SDS011;50720;54.324;18.558;2023-05-31T12:24:50;6.03;;;1.45;;
42912;SDS011;50720;54.324;18.558;2023-05-31T12:27:22;6.95;;;1.27;;
42912;SDS011;50720;54.324;18.558;2023-05-31T12:30:15;1.60;;;0.80;;
42912;SDS011;50720;54.324;18.558;2023-05-31T12:32:46;13.32;;;1.30;;
42912;SDS011;50720;54.324;18.558;2023-05-31T12:35:17;2.75;;;0.77;;
42912;SDS011;50720;54.324;18.558;2023-05-31T12:37:46;3.60;;;1.13;;
42912;SDS011;50720;54.324;18.558;2023-05-31T12:40:19;5.88;;;0.88;;
42912;SDS011;50720;54.324;18.558;2023-05-31T12:42:51;3.55;;;1.15;;
42912;SDS011;50720;54.324;18.558;2023-05-31T12:45:28;8.45;;;1.20;;
42912;SDS011;50720;54.324;18.558;2023-05-31T12:47:58;8.52;;;1.10;;
42912;SDS011;50720;54.324;18.558;2023-05-31T12:50:31;2.33;;;0.90;;
42912;SDS011;50720;54.324;18.558;2023-05-31T12:53:01;4.45;;;1.20;;
42912;SDS011;50720;54.324;18.558;2023-05-31T12:55:35;2.55;;;0.90;;
42912;SDS011;50720;54.324;18.558;2023-05-31T12:58:04;3.90;;;1.15;;
42912;SDS011;50720;54.324;18.558;2023-05-31T13:00:34;7.03;;;1.03;;
42912;SDS011;50720;54.324;18.558;2023-05-31T13:03:04;3.25;;;1.02;;
42912;SDS011;50720;54.324;18.558;2023-05-31T13:05:42;2.03;;;1.10;;
42912;SDS011;50720;54.324;18.558;2023-05-31T13:08:12;5.55;;;1.65;;
42912;SDS011;50720;54.324;18.558;2023-05-31T13:10:42;4.95;;;0.85;;
42912;SDS011;50720;54.324;18.558;2023-05-31T13:13:11;20.48;;;2.17;;
42912;SDS011;50720;54.324;18.558;2023-05-31T13:15:41;6.57;;;0.80;;
42912;SDS011;50720;54.324;18.558;2023-05-31T13:18:11;4.57;;;0.90;;
42912;SDS011;50720;54.324;18.558;2023-05-31T13:20:42;2.97;;;0.98;;
42912;SDS011;50720;54.324;18.558;2023-05-31T13:23:12;2.25;;;1.00;;
42912;SDS011;50720;54.324;18.558;2023-05-31T13:25:42;4.38;;;0.77;;
42912;SDS011;50720;54.324;18.558;2023-05-31T13:28:12;4.15;;;0.68;;
42912;SDS011;50720;54.324;18.558;2023-05-31T13:30:41;5.10;;;0.95;;
42912;SDS011;50720;54.324;18.558;2023-05-31T13:35:42;8.60;;;1.10;;
42912;SDS011;50720;54.324;18.558;2023-05-31T13:38:12;10.52;;;2.13;;
42912;SDS011;50720;54.324;18.558;2023-05-31T13:40:42;5.13;;;1.02;;
42912;SDS011;50720;54.324;18.558;2023-05-31T13:43:12;8.48;;;1.60;;
42912;SDS011;50720;54.324;18.558;2023-05-31T13:45:41;4.43;;;0.80;;
42912;SDS011;50720;54.324;18.558;2023-05-31T13:48:11;3.38;;;0.93;;
42912;SDS011;50720;54.324;18.558;2023-05-31T13:50:43;2.38;;;0.90;;
42912;SDS011;50720;54.324;18.558;2023-05-31T13:53:12;4.38;;;1.17;;
42912;SDS011;50720;54.324;18.558;2023-05-31T13:55:42;7.43;;;1.10;;
42912;SDS011;50720;54.324;18.558;2023-05-31T13:58:29;3.95;;;1.10;;
42912;SDS011;50720;54.324;18.558;2023-05-31T14:00:58;5.18;;;0.85;;
42912;SDS011;50720;54.324;18.558;2023-05-31T14:05:59;9.45;;;1.55;;
42912;SDS011;50720;54.324;18.558;2023-05-31T14:08:29;7.13;;;1.02;;
42912;SDS011;50720;54.324;18.558;2023-05-31T14:10:58;4.75;;;0.98;;
42912;SDS011;50720;54.324;18.558;2023-05-31T14:15:58;3.73;;;0.80;;
42912;SDS011;50720;54.324;18.558;2023-05-31T14:18:28;4.25;;;0.80;;
42912;SDS011;50720;54.324;18.558;2023-05-31T14:20:59;2.47;;;0.82;;
42912;SDS011;50720;54.324;18.558;2023-05-31T14:23:30;4.50;;;1.02;;
42912;SDS011;50720;54.324;18.558;2023-05-31T14:26:00;4.90;;;1.10;;
42912;SDS011;50720;54.324;18.558;2023-05-31T14:28:30;4.95;;;1.27;;
42912;SDS011;50720;54.324;18.558;2023-05-31T14:31:01;6.05;;;1.83;;
42912;SDS011;50720;54.324;18.558;2023-05-31T14:33:31;8.88;;;3.15;;
42912;SDS011;50720;54.324;18.558;2023-05-31T14:36:02;3.70;;;1.08;;
42912;SDS011;50720;54.324;18.558;2023-05-31T14:38:33;6.05;;;1.20;;
42912;SDS011;50720;54.324;18.558;2023-05-31T14:41:02;3.83;;;1.05;;
42912;SDS011;50720;54.324;18.558;2023-05-31T14:43:32;7.18;;;0.80;;
42912;SDS011;50720;54.324;18.558;2023-05-31T14:46:02;3.92;;;0.77;;
42912;SDS011;50720;54.324;18.558;2023-05-31T14:48:32;4.80;;;1.08;;
42912;SDS011;50720;54.324;18.558;2023-05-31T14:51:03;4.10;;;1.20;;
42912;SDS011;50720;54.324;18.558;2023-05-31T14:53:34;2.92;;;1.00;;
42912;SDS011;50720;54.324;18.558;2023-05-31T14:56:04;6.63;;;1.00;;
42912;SDS011;50720;54.324;18.558;2023-05-31T14:58:36;6.22;;;1.30;;
42912;SDS011;50720;54.324;18.558;2023-05-31T15:01:06;1.20;;;0.95;;
42912;SDS011;50720;54.324;18.558;2023-05-31T15:03:36;4.22;;;1.30;;
42912;SDS011;50720;54.324;18.558;2023-05-31T15:06:07;2.33;;;1.00;;
42912;SDS011;50720;54.324;18.558;2023-05-31T15:08:37;14.30;;;3.05;;
42912;SDS011;50720;54.324;18.558;2023-05-31T15:11:07;4.93;;;0.95;;
42912;SDS011;50720;54.324;18.558;2023-05-31T15:13:39;7.10;;;1.55;;
42912;SDS011;50720;54.324;18.558;2023-05-31T15:16:09;3.78;;;1.02;;
42912;SDS011;50720;54.324;18.558;2023-05-31T15:18:38;3.47;;;1.35;;
42912;SDS011;50720;54.324;18.558;2023-05-31T15:21:09;4.53;;;0.82;;
42912;SDS011;50720;54.324;18.558;2023-05-31T15:23:39;9.77;;;1.92;;